Time;durP1;ratioP1;P1;durP2;ratioP2;P2;SDS_P1;SDS_P2;PMS_P1;PMS_P2;Temp;Humidity;BMP_temperature;BMP_pressure;BME280_temperature;BME280_humidity;BME280_pressure;Samples;Min_cycle;Max_cycle;Signal;HPM_P1;HPM_P2
2023/04/18 00:02:16;;;;;;;21.67;8.88;;;;;;;12.88;40.97;100366.41;5103133;28;20122;-62
2023/04/18 00:04:45;;;;;;;18.10;8.52;;;;;;;12.83;41.08;100368.31;5077610;28;20039;-63
2023/04/18 00:07:14;;;;;;;24.20;8.48;;;;;;;12.81;41.04;100375.38;5069335;28;20424;-65
2023/04/18 00:09:41;;;;;;;18.85;8.73;;;;;;;12.81;40.78;100367.53;5087245;28;20040;-64
2023/04/18 00:12:07;;;;;;;21.95;9.02;;;;;;;12.78;40.63;100367.63;5086155;28;20036;-63
2023/04/18 00:14:34;;;;;;;18.70;8.15;;;;;;;12.76;40.88;100375.50;5068831;28;20055;-63
2023/04/18 00:17:03;;;;;;;21.13;8.45;;;;;;;12.73;41.42;100373.84;5088119;28;20565;-63
2023/04/18 00:19:30;;;;;;;26.90;8.45;;;;;;;12.73;41.19;100367.75;5085080;28;20046;-64
2023/04/18 00:21:56;;;;;;;22.70;8.95;;;;;;;12.73;41.53;100373.00;5084654;28;20043;-62
2023/04/18 00:24:22;;;;;;;19.58;8.20;;;;;;;12.73;41.29;100368.63;5070199;28;20515;-62
2023/04/18 00:26:48;;;;;;;21.77;8.70;;;;;;;12.74;40.89;100359.03;5102903;28;20128;-65
2023/04/18 00:29:14;;;;;;;27.38;8.60;;;;;;;12.73;41.02;100365.16;5085764;28;20173;-63
2023/04/18 00:31:40;;;;;;;20.52;9.15;;;;;;;12.76;41.15;100370.28;5088220;28;20123;-64
2023/04/18 00:34:06;;;;;;;20.65;8.98;;;;;;;12.76;41.04;100370.28;5085871;28;20519;-64
2023/04/18 00:36:32;;;;;;;17.30;7.75;;;;;;;12.78;41.02;100365.88;5087865;28;20035;-63
2023/04/18 00:38:58;;;;;;;16.95;8.38;;;;;;;12.79;41.32;100367.56;5103204;28;20123;-64
2023/04/18 00:41:26;;;;;;;26.17;8.65;;;;;;;12.63;41.41;100341.13;5084149;28;20158;-64
2023/04/18 00:43:53;;;;;;;23.80;8.88;;;;;;;12.65;41.46;100348.91;5070582;28;20814;-63
2023/04/18 00:46:19;;;;;;;25.42;8.23;;;;;;;12.79;41.78;100372.78;5103489;28;20531;-62
2023/04/18 00:48:46;;;;;;;16.15;8.23;;;;;;;12.79;41.94;100361.50;5052886;28;20112;-63
2023/04/18 00:51:13;;;;;;;16.90;8.27;;;;;;;12.79;41.86;100359.75;5042939;28;20082;-62
2023/04/18 00:53:40;;;;;;;24.38;8.80;;;;;;;12.64;42.11;100334.16;5066499;28;20040;-63
2023/04/18 00:56:06;;;;;;;21.15;8.30;;;;;;;12.62;41.95;100335.94;5067672;28;20036;-62
2023/04/18 00:58:32;;;;;;;22.65;8.07;;;;;;;12.72;42.17;100359.09;5084734;28;20529;-61
2023/04/18 01:00:58;;;;;;;20.60;8.82;;;;;;;12.59;42.01;100339.53;5053938;28;20040;-62
2023/04/18 01:03:24;;;;;;;24.60;8.30;;;;;;;12.69;42.32;100364.41;5052347;28;20054;-63
2023/04/18 01:05:52;;;;;;;29.55;9.85;;;;;;;12.65;42.37;100359.34;5081184;28;20040;-62
2023/04/18 01:08:20;;;;;;;20.08;8.48;;;;;;;12.64;42.71;100355.03;5071851;28;20695;-64
2023/04/18 01:10:47;;;;;;;24.27;8.32;;;;;;;12.59;42.82;100362.16;5090125;28;20044;-63
2023/04/18 01:13:17;;;;;;;21.73;8.43;;;;;;;12.52;42.82;100353.66;5089368;28;20070;-62
2023/04/18 01:15:45;;;;;;;20.50;8.95;;;;;;;12.51;42.77;100353.72;5090954;28;20043;-62
2023/04/18 01:18:12;;;;;;;31.42;8.43;;;;;;;12.39;42.74;100338.44;5051840;28;20419;-63
2023/04/18 01:20:41;;;;;;;25.10;8.60;;;;;;;12.50;43.18;100358.09;5081550;28;20047;-64
2023/04/18 01:23:09;;;;;;;21.52;8.63;;;;;;;12.37;42.70;100343.69;5056003;28;20043;-62
2023/04/18 01:25:35;;;;;;;22.15;8.30;;;;;;;12.37;42.70;100335.03;5072624;28;20044;-63
2023/04/18 01:28:01;;;;;;;23.42;8.60;;;;;;;12.47;43.06;100347.72;5071872;28;20122;-63
2023/04/18 01:30:27;;;;;;;24.00;8.52;;;;;;;12.45;42.52;100348.69;5082106;28;20499;-64
2023/04/18 01:32:53;;;;;;;21.30;8.07;;;;;;;12.45;43.18;100348.69;5106587;28;20050;-62
2023/04/18 01:35:19;;;;;;;19.08;7.85;;;;;;;12.44;42.79;100355.66;5105990;28;20035;-63
2023/04/18 01:37:45;;;;;;;18.15;8.00;;;;;;;12.43;43.19;100353.09;5066959;28;20047;-64
2023/04/18 01:40:11;;;;;;;17.60;7.70;;;;;;;12.43;43.11;100356.56;5079646;28;20032;-62
2023/04/18 01:42:37;;;;;;;15.20;7.55;;;;;;;12.43;43.00;100356.56;5055517;28;20162;-62
2023/04/18 01:45:04;;;;;;;20.80;7.57;;;;;;;12.44;42.71;100352.19;5122588;27;20044;-63
2023/04/18 01:47:31;;;;;;;17.25;7.85;;;;;;;12.45;42.86;100356.53;5056067;28;20101;-64
2023/04/18 01:49:57;;;;;;;19.70;8.50;;;;;;;12.46;42.98;100353.84;5089390;28;20043;-63
2023/04/18 01:52:23;;;;;;;18.02;7.72;;;;;;;12.48;43.24;100349.44;5089151;28;20486;-63
2023/04/18 01:54:50;;;;;;;20.65;7.88;;;;;;;12.49;42.75;100343.34;5090217;28;20089;-62
2023/04/18 01:57:16;;;;;;;20.48;8.00;;;;;;;12.52;43.09;100344.97;5071622;28;20457;-63
2023/04/18 01:59:41;;;;;;;16.85;7.60;;;;;;;12.54;43.25;100340.56;5106172;28;20031;-64
2023/04/18 02:02:09;;;;;;;16.35;7.80;;;;;;;12.37;43.09;100319.38;5071397;28;20427;-62
2023/04/18 02:04:36;;;;;;;18.10;8.43;;;;;;;12.36;42.88;100320.28;5070853;28;20034;-64
2023/04/18 02:07:01;;;;;;;15.93;8.13;;;;;;;12.47;43.07;100342.50;5087221;28;20052;-62
2023/04/18 02:09:27;;;;;;;17.90;8.80;;;;;;;12.32;43.48;100312.56;5085794;28;20056;-63
2023/04/18 02:11:58;;;;;;;24.33;8.02;;;;;;;12.47;43.45;100321.66;5068830;28;20036;-63
2023/04/18 02:14:25;;;;;;;12.38;7.47;;;;;;;12.47;43.02;100332.06;5090253;28;20094;-63
2023/04/18 02:16:52;;;;;;;17.40;7.40;;;;;;;12.35;43.05;100314.22;5089167;28;20040;-63
2023/04/18 02:19:17;;;;;;;17.25;7.50;;;;;;;12.38;43.14;100314.13;5089691;28;20040;-63
2023/04/18 02:21:43;;;;;;;13.85;7.35;;;;;;;12.52;43.20;100335.41;5088960;28;20044;-61
2023/04/18 02:24:09;;;;;;;18.30;7.95;;;;;;;12.51;43.26;100331.06;5089982;28;20032;-63
2023/04/18 02:26:35;;;;;;;16.88;7.78;;;;;;;12.52;43.44;100339.75;5088918;28;20105;-62
2023/04/18 02:29:01;;;;;;;20.67;7.68;;;;;;;12.51;43.89;100330.25;5105189;27;20113;-63
2023/04/18 02:31:28;;;;;;;15.27;7.72;;;;;;;12.50;43.62;100338.97;5088004;28;20047;-63
2023/04/18 02:33:54;;;;;;;17.83;8.18;;;;;;;12.49;43.82;100342.47;5089131;28;20070;-62
2023/04/18 02:36:21;;;;;;;18.88;8.60;;;;;;;12.44;44.16;100345.22;5088445;28;20047;-64
2023/04/18 02:38:46;;;;;;;18.05;8.10;;;;;;;12.23;44.27;100314.59;5089718;28;20036;-64
2023/04/18 02:41:16;;;;;;;18.38;7.82;;;;;;;12.24;44.31;100317.19;5088994;28;20036;-61
2023/04/18 02:43:41;;;;;;;;;;;;;;;12.37;44.10;100348.91;5088693;28;20439;-64
2023/04/18 02:46:07;;;;;;;18.33;7.10;;;;;;;12.37;43.47;100343.69;5070918;28;19920;-63
2023/04/18 02:48:34;;;;;;;16.48;7.47;;;;;;;12.24;43.94;100325.00;5071626;28;20040;-63
2023/04/18 02:51:04;;;;;;;17.60;7.53;;;;;;;12.38;44.00;100339.34;5104247;28;20044;-65
2023/04/18 02:53:32;;;;;;;18.88;7.75;;;;;;;12.40;44.04;100341.03;5085832;28;20054;-62
2023/04/18 02:55:59;;;;;;;17.65;8.23;;;;;;;12.16;43.66;100302.66;5070713;28;20093;-64
2023/04/18 02:58:35;;;;;;;21.83;8.43;;;;;;;12.43;44.14;100337.44;5103779;28;20071;-63
2023/04/18 03:01:26;;;;;;;20.48;8.15;;;;;;;12.44;44.42;100342.63;5049906;28;20075;-64
2023/04/18 03:04:15;;;;;;;20.23;8.13;;;;;;;12.27;44.40;100313.59;5084252;28;20040;-64
2023/04/18 03:06:54;;;;;;;22.00;8.77;;;;;;;12.42;44.23;100340.94;5083328;28;20423;-63
2023/04/18 03:09:21;;;;;;;26.52;9.35;;;;;;;12.41;44.55;100340.09;5103861;28;20040;-64
2023/04/18 03:11:52;;;;;;;26.92;9.23;;;;;;;12.36;44.78;100334.16;5085905;28;20072;-63
2023/04/18 03:14:30;;;;;;;24.65;8.77;;;;;;;12.44;44.38;100337.41;5085501;28;20097;-63
2023/04/18 03:16:58;;;;;;;24.40;9.15;;;;;;;12.47;44.54;100336.44;5048582;28;20535;-62
2023/04/18 03:19:30;;;;;;;21.85;9.07;;;;;;;12.49;44.76;100339.88;5070420;28;20040;-63
2023/04/18 03:22:03;;;;;;;25.77;8.57;;;;;;;12.54;45.07;100343.19;5087394;28;20039;-62
2023/04/18 03:24:29;;;;;;;20.92;7.63;;;;;;;12.57;44.83;100338.72;5054326;28;20047;-63
2023/04/18 03:26:59;;;;;;;21.10;9.00;;;;;;;12.61;44.12;100342.09;5056005;28;20043;-63
2023/04/18 03:29:25;;;;;;;24.33;8.93;;;;;;;12.65;44.47;100343.69;5100705;28;20041;-62
2023/04/18 03:31:55;;;;;;;21.40;8.98;;;;;;;12.61;44.18;100324.66;5104204;28;20042;-63
2023/04/18 03:34:24;;;;;;;17.70;7.97;;;;;;;12.67;44.27;100321.84;5054742;28;20046;-63
2023/04/18 03:36:51;;;;;;;16.65;8.25;;;;;;;12.87;44.57;100322.97;5103685;28;20036;-62
2023/04/18 03:39:18;;;;;;;20.63;9.32;;;;;;;13.07;44.24;100337.06;5034324;28;20067;-63
2023/04/18 03:41:45;;;;;;;17.48;8.45;;;;;;;13.09;44.25;100330.00;5065342;28;20079;-63
2023/04/18 03:44:12;;;;;;;31.85;9.82;;;;;;;13.21;43.79;100339.22;5087115;28;20135;-64
2023/04/18 03:46:40;;;;;;;19.80;8.75;;;;;;;13.31;43.85;100339.75;5069990;28;20040;-63
2023/04/18 03:49:07;;;;;;;20.10;8.95;;;;;;;13.37;43.35;100344.75;5070340;28;20036;-64
2023/04/18 03:51:42;;;;;;;23.88;9.48;;;;;;;13.46;43.64;100347.88;5086087;28;20032;-64
2023/04/18 03:54:08;;;;;;;25.17;8.25;;;;;;;13.55;43.42;100341.50;5090632;28;20043;-64
2023/04/18 03:56:34;;;;;;;24.42;10.18;;;;;;;13.61;43.10;100343.88;5082218;28;20042;-63
2023/04/18 03:59:00;;;;;;;30.15;9.20;;;;;;;13.50;43.02;100318.13;5069325;28;20522;-63
2023/04/18 04:01:27;;;;;;;21.02;8.40;;;;;;;13.67;42.92;100343.66;5052066;28;20044;-63
2023/04/18 04:03:53;;;;;;;30.17;9.25;;;;;;;13.70;43.07;100345.31;5052180;28;20067;-64
2023/04/18 04:06:20;;;;;;;27.50;9.50;;;;;;;13.72;42.69;100343.47;5033676;28;20053;-63
2023/04/18 04:08:46;;;;;;;21.88;9.43;;;;;;;13.70;42.77;100350.53;5067030;28;20101;-64
2023/04/18 04:11:14;;;;;;;26.52;10.38;;;;;;;13.68;42.81;100345.38;5101346;28;21146;-64
2023/04/18 04:13:41;;;;;;;29.17;9.63;;;;;;;13.69;42.73;100347.06;5068604;28;20048;-64
2023/04/18 04:16:08;;;;;;;23.48;9.13;;;;;;;13.60;42.85;100334.34;5106472;28;20035;-62
2023/04/18 04:18:35;;;;;;;22.10;8.68;;;;;;;13.69;42.46;100343.59;5069147;28;20054;-63
2023/04/18 04:21:02;;;;;;;28.65;9.02;;;;;;;13.70;42.81;100351.41;5085960;28;20044;-64
2023/04/18 04:23:45;;;;;;;31.77;10.13;;;;;;;13.73;42.77;100348.66;5066019;28;20083;-65
2023/04/18 04:26:22;;;;;;;30.30;9.60;;;;;;;13.76;42.41;100345.94;5086470;28;20054;-63
2023/04/18 04:28:56;;;;;;;23.48;9.93;;;;;;;13.84;42.49;100351.75;5056665;28;20041;-65
2023/04/18 04:31:25;;;;;;;19.20;9.50;;;;;;;13.89;42.31;100341.97;5057732;28;20039;-63
2023/04/18 04:33:52;;;;;;;25.52;9.50;;;;;;;13.99;42.47;100352.91;5080526;28;20093;-63
2023/04/18 04:36:21;;;;;;;30.42;9.98;;;;;;;13.90;42.15;100330.59;5062626;28;20040;-63
2023/04/18 04:38:51;;;;;;;15.63;8.75;;;;;;;14.07;42.25;100353.50;5065949;28;20050;-65
2023/04/18 04:41:21;;;;;;;24.20;9.07;;;;;;;14.09;42.17;100348.19;5058165;28;20134;-64
2023/04/18 04:43:49;;;;;;;22.55;8.95;;;;;;;14.12;42.28;100353.31;5056769;28;20057;-62
2023/04/18 04:46:21;;;;;;;20.63;9.05;;;;;;;14.15;42.13;100350.56;5093491;28;20484;-62
2023/04/18 04:48:50;;;;;;;26.17;8.52;;;;;;;14.07;41.95;100336.97;5083999;28;20074;-62
2023/04/18 04:51:17;;;;;;;17.90;8.73;;;;;;;14.21;41.99;100348.59;5058465;28;20419;-60
2023/04/18 04:53:44;;;;;;;20.17;8.50;;;;;;;14.16;41.86;100331.38;5055709;28;20036;-62
2023/04/18 04:56:10;;;;;;;23.17;8.85;;;;;;;14.29;41.78;100349.13;5093011;27;20050;-63
2023/04/18 04:58:36;;;;;;;24.50;8.02;;;;;;;14.24;41.55;100339.75;5093924;28;20040;-61
2023/04/18 05:01:08;;;;;;;30.25;8.80;;;;;;;14.33;41.80;100345.50;5100454;27;20040;-62
2023/04/18 05:03:38;;;;;;;21.25;8.23;;;;;;;14.43;41.77;100342.56;5100522;27;20045;-61
2023/04/18 05:06:04;;;;;;;19.15;9.07;;;;;;;14.52;41.66;100350.03;5104674;27;20048;-62
2023/04/18 05:08:30;;;;;;;20.77;10.13;;;;;;;14.56;41.38;100348.97;5085746;28;20420;-61
2023/04/18 05:10:56;;;;;;;19.48;9.60;;;;;;;14.55;41.18;100347.31;5069042;28;20087;-63
2023/04/18 05:13:22;;;;;;;19.35;9.18;;;;;;;14.59;41.01;100343.66;5061676;28;20052;-63
2023/04/18 05:15:48;;;;;;;19.55;9.27;;;;;;;14.59;40.87;100330.56;5088262;28;20052;-62
2023/04/18 05:18:14;;;;;;;22.75;9.13;;;;;;;14.62;40.85;100323.44;5085042;28;20578;-63
2023/04/18 05:20:40;;;;;;;19.15;9.35;;;;;;;14.84;40.86;100346.97;5079978;28;20090;-62
2023/04/18 05:23:07;;;;;;;19.63;9.60;;;;;;;14.92;40.75;100344.88;5068874;28;20040;-62
2023/04/18 05:25:32;;;;;;;17.48;9.40;;;;;;;14.99;40.69;100343.72;5079957;28;20043;-63
2023/04/18 05:27:59;;;;;;;30.55;9.95;;;;;;;15.05;40.40;100350.47;5084438;28;20043;-64
2023/04/18 05:30:25;;;;;;;21.17;9.52;;;;;;;15.07;40.46;100344.22;5072817;28;20143;-62
2023/04/18 05:32:51;;;;;;;26.00;10.10;;;;;;;15.16;40.36;100353.47;5094256;28;20350;-63
2023/04/18 05:35:17;;;;;;;15.95;9.43;;;;;;;15.16;40.19;100354.34;5066584;28;20036;-63
2023/04/18 05:37:43;;;;;;;16.58;9.20;;;;;;;15.15;39.95;100354.38;5087180;28;20036;-63
2023/04/18 05:40:11;;;;;;;18.15;9.85;;;;;;;15.14;40.02;100356.16;5090302;28;20526;-62
2023/04/18 05:42:37;;;;;;;14.38;8.68;;;;;;;15.15;39.90;100359.63;5037709;28;20543;-62
2023/04/18 05:45:04;;;;;;;22.63;9.07;;;;;;;15.20;39.76;100355.03;5082457;28;20059;-63
2023/04/18 05:47:32;;;;;;;19.77;9.57;;;;;;;15.26;39.83;100354.78;5062591;28;20067;-62
2023/04/18 05:49:58;;;;;;;17.27;9.77;;;;;;;15.33;39.72;100358.00;5084781;28;20098;-60
2023/04/18 05:52:25;;;;;;;19.23;9.50;;;;;;;15.41;39.57;100356.75;5068674;28;20035;-62
2023/04/18 05:54:51;;;;;;;23.25;10.43;;;;;;;15.41;39.14;100346.25;5080438;28;20028;-61
2023/04/18 05:57:18;;;;;;;25.10;9.88;;;;;;;15.43;39.30;100336.56;5069971;28;20063;-62
2023/04/18 05:59:44;;;;;;;23.75;11.30;;;;;;;15.75;38.88;100357.94;5085615;28;20063;-63
2023/04/18 06:02:12;;;;;;;21.83;10.57;;;;;;;15.93;38.60;100359.69;5089821;28;20043;-61
2023/04/18 06:04:42;;;;;;;28.20;11.63;;;;;;;16.13;38.55;100358.78;5069816;28;20043;-61
2023/04/18 06:07:09;;;;;;;23.48;11.35;;;;;;;16.39;38.02;100355.78;5079314;28;20052;-63
2023/04/18 06:09:35;;;;;;;24.17;11.15;;;;;;;16.63;37.96;100332.81;5063838;28;20041;-61
2023/04/18 06:12:01;;;;;;;23.95;10.57;;;;;;;17.03;37.11;100358.78;5082863;28;20043;-62
2023/04/18 06:14:27;;;;;;;23.08;11.43;;;;;;;17.18;36.81;100359.78;5070772;28;20039;-62
2023/04/18 06:16:53;;;;;;;26.98;11.25;;;;;;;17.19;36.58;100357.09;5084421;28;20046;-61
2023/04/18 06:19:19;;;;;;;23.70;10.65;;;;;;;17.23;36.56;100360.41;5079449;28;20040;-60
2023/04/18 06:21:46;;;;;;;31.52;12.55;;;;;;;17.40;36.49;100355.16;5082740;28;20120;-63
2023/04/18 06:24:12;;;;;;;22.67;11.60;;;;;;;17.71;35.96;100371.06;5070147;28;20120;-63
2023/04/18 06:26:39;;;;;;;23.58;12.25;;;;;;;17.86;35.48;100347.50;5069353;28;20044;-62
2023/04/18 06:29:05;;;;;;;30.83;12.00;;;;;;;18.16;35.37;100362.47;5079871;28;20096;-64
2023/04/18 06:31:31;;;;;;;20.42;11.90;;;;;;;18.25;34.87;100357.66;5045452;28;20036;-62
2023/04/18 06:33:57;;;;;;;21.95;11.43;;;;;;;18.43;34.64;100357.47;5098707;28;20043;-65
2023/04/18 06:36:23;;;;;;;22.35;11.48;;;;;;;18.86;33.96;100358.56;5083996;28;20101;-64
2023/04/18 06:38:49;;;;;;;28.73;12.88;;;;;;;19.93;32.57;100360.09;5069253;28;20071;-63
2023/04/18 06:41:15;;;;;;;20.75;11.88;;;;;;;20.22;32.10;100356.44;5067368;28;20035;-63
2023/04/18 06:43:41;;;;;;;24.70;11.73;;;;;;;20.29;31.82;100353.34;5083458;28;20162;-65
2023/04/18 06:46:07;;;;;;;23.73;11.65;;;;;;;20.26;31.66;100355.31;5069061;28;20048;-64
2023/04/18 06:48:34;;;;;;;32.22;12.38;;;;;;;20.28;31.33;100345.50;5084240;28;20040;-63
2023/04/18 06:51:09;;;;;;;19.92;10.82;;;;;;;20.27;31.19;100349.09;5068639;28;22301;-64
2023/04/18 06:53:35;;;;;;;28.65;11.48;;;;;;;20.29;30.72;100347.19;5076803;28;20039;-65
2023/04/18 06:56:01;;;;;;;21.40;12.57;;;;;;;20.23;30.71;100352.88;5077268;28;20068;-63
2023/04/18 06:58:27;;;;;;;20.23;10.63;;;;;;;20.18;30.55;100357.59;5079365;28;20153;-63
2023/04/18 07:00:53;;;;;;;20.45;10.95;;;;;;;20.01;30.63;100350.72;5081148;28;20525;-64
2023/04/18 07:03:19;;;;;;;26.80;12.00;;;;;;;19.72;30.85;100356.97;5068782;28;20172;-65
2023/04/18 07:05:45;;;;;;;21.63;11.00;;;;;;;19.37;31.14;100335.31;5081576;28;20048;-64
2023/04/18 07:08:11;;;;;;;20.40;11.13;;;;;;;19.28;31.35;100354.34;5055032;28;20044;-65
2023/04/18 07:10:37;;;;;;;23.80;10.68;;;;;;;18.95;31.33;100312.34;5084799;28;20047;-66
2023/04/18 07:13:03;;;;;;;26.90;11.60;;;;;;;19.28;31.51;100344.63;5083760;28;20036;-64
2023/04/18 07:15:29;;;;;;;22.48;10.18;;;;;;;19.54;31.12;100348.38;5086121;28;20051;-65
2023/04/18 07:17:55;;;;;;;22.15;10.98;;;;;;;19.78;30.98;100344.22;5053186;28;20112;-64
2023/04/18 07:20:21;;;;;;;24.40;10.45;;;;;;;20.03;30.86;100353.28;5082563;28;20048;-65
2023/04/18 07:22:47;;;;;;;22.30;10.88;;;;;;;20.11;30.49;100335.16;5051813;28;20070;-65
2023/04/18 07:25:13;;;;;;;21.52;10.38;;;;;;;20.13;30.37;100330.63;5065095;28;20044;-65
2023/04/18 07:27:39;;;;;;;22.15;10.10;;;;;;;20.17;30.51;100354.09;5066832;28;20709;-63
2023/04/18 07:30:06;;;;;;;25.70;10.27;;;;;;;20.08;30.71;100353.84;5068173;28;20032;-61
2023/04/18 07:32:33;;;;;;;19.77;10.63;;;;;;;19.92;30.79;100356.59;5080224;28;20067;-64
2023/04/18 07:35:00;;;;;;;16.95;10.90;;;;;;;19.64;31.00;100336.31;5060973;28;20514;-63
2023/04/18 07:37:26;;;;;;;25.75;12.35;;;;;;;19.75;30.89;100352.34;5086504;28;20069;-63
2023/04/18 07:39:52;;;;;;;24.02;11.68;;;;;;;19.77;30.87;100357.53;5080867;28;20123;-64
2023/04/18 07:42:18;;;;;;;17.30;10.50;;;;;;;19.70;30.93;100359.69;5087196;28;20127;-64
2023/04/18 07:44:44;;;;;;;23.00;10.77;;;;;;;19.59;31.04;100335.75;5098589;28;20048;-65
2023/04/18 07:47:10;;;;;;;29.83;11.98;;;;;;;19.73;31.00;100335.75;5081204;28;20143;-64
2023/04/18 07:49:37;;;;;;;22.00;11.25;;;;;;;20.48;30.31;100353.03;5082796;28;20545;-63
2023/04/18 07:52:03;;;;;;;20.92;11.25;;;;;;;20.75;29.94;100358.31;5052193;28;20094;-64
2023/04/18 07:54:30;;;;;;;24.10;11.88;;;;;;;20.62;29.93;100352.97;5087417;28;20045;-63
2023/04/18 07:56:57;;;;;;;18.90;10.68;;;;;;;20.47;29.94;100359.25;5084554;28;20048;-61
2023/04/18 07:59:24;;;;;;;25.70;11.55;;;;;;;20.19;30.22;100335.53;5072197;28;20041;-65
2023/04/18 08:01:50;;;;;;;24.58;10.70;;;;;;;20.20;30.38;100355.72;5079798;28;20044;-63
2023/04/18 08:04:16;;;;;;;18.38;10.52;;;;;;;20.17;30.43;100350.63;5083597;28;20093;-64
2023/04/18 08:06:42;;;;;;;28.25;11.55;;;;;;;20.05;30.33;100351.38;5058710;28;20032;-63
2023/04/18 08:09:08;;;;;;;18.02;9.88;;;;;;;19.85;30.55;100348.19;5078985;28;20044;-62
2023/04/18 08:11:34;;;;;;;23.63;10.13;;;;;;;19.68;30.71;100347.56;5096333;28;20036;-63
2023/04/18 08:14:00;;;;;;;18.95;10.63;;;;;;;19.42;31.06;100351.72;5069986;28;20539;-61
2023/04/18 08:16:27;;;;;;;19.25;10.50;;;;;;;19.21;31.13;100350.38;5074552;28;20045;-63
2023/04/18 08:18:53;;;;;;;21.35;10.18;;;;;;;19.00;31.61;100341.94;5097672;28;20036;-64
2023/04/18 08:21:19;;;;;;;28.20;10.32;;;;;;;18.84;31.75;100349.88;5083765;28;20093;-61
2023/04/18 08:23:46;;;;;;;38.53;20.73;;;;;;;18.68;31.96;100354.34;5081845;28;20040;-61
2023/04/18 08:26:12;;;;;;;32.38;16.98;;;;;;;18.51;32.41;100352.63;5082024;28;20032;-62
2023/04/18 08:28:38;;;;;;;23.17;10.60;;;;;;;18.36;32.67;100352.66;5059893;28;20068;-61
2023/04/18 08:31:04;;;;;;;18.13;10.30;;;;;;;18.24;32.78;100358.56;5050441;28;20040;-62
2023/04/18 08:33:30;;;;;;;15.85;9.73;;;;;;;18.14;32.79;100355.59;5083219;28;20067;-62
2023/04/18 08:35:56;;;;;;;16.27;9.32;;;;;;;18.00;33.23;100363.41;5078852;28;20654;-63
2023/04/18 08:38:22;;;;;;;20.88;9.65;;;;;;;17.85;33.26;100354.53;5083306;28;20044;-61
2023/04/18 08:40:48;;;;;;;14.40;9.43;;;;;;;17.69;33.23;100330.00;5066391;28;20048;-62
2023/04/18 08:43:14;;;;;;;18.67;9.98;;;;;;;17.62;33.38;100333.88;5089718;28;20042;-62
2023/04/18 08:45:42;;;;;;;16.95;10.10;;;;;;;17.53;33.44;100327.31;5080866;28;20047;-60
2023/04/18 08:48:15;;;;;;;20.65;9.90;;;;;;;17.51;33.53;100329.16;5067756;28;20044;-61
2023/04/18 08:50:41;;;;;;;24.13;10.20;;;;;;;17.58;33.34;100363.88;5100379;28;20063;-61
2023/04/18 08:53:08;;;;;;;21.63;9.73;;;;;;;17.39;33.46;100340.31;5095931;28;20036;-61
2023/04/18 08:55:34;;;;;;;22.65;10.20;;;;;;;17.33;33.80;100328.31;5071770;28;20075;-60
2023/04/18 08:58:01;;;;;;;14.25;9.38;;;;;;;17.51;33.75;100352.81;5069305;28;20044;-62
2023/04/18 09:00:28;;;;;;;19.05;9.45;;;;;;;17.52;33.88;100362.41;5087582;28;20583;-62
2023/04/18 09:02:55;;;;;;;18.52;10.65;;;;;;;17.55;33.63;100354.34;5067270;28;20473;-61
2023/04/18 09:05:24;;;;;;;14.30;9.75;;;;;;;17.61;33.29;100359.31;5069327;28;20036;-63
2023/04/18 09:07:53;;;;;;;17.65;8.57;;;;;;;17.67;33.43;100348.50;5064289;28;20088;-61
2023/04/18 09:10:33;;;;;;;21.30;9.27;;;;;;;17.77;33.38;100354.97;5068520;28;20032;-62
2023/04/18 09:13:01;;;;;;;20.88;10.27;;;;;;;17.74;33.39;100347.22;5085553;28;20036;-62
2023/04/18 09:15:29;;;;;;;20.90;9.30;;;;;;;17.76;33.33;100345.38;5087599;28;20047;-61
2023/04/18 09:17:57;;;;;;;20.55;9.75;;;;;;;17.81;33.06;100350.38;5100060;28;20083;-61
2023/04/18 09:20:29;;;;;;;15.67;8.53;;;;;;;17.85;33.08;100348.44;5087528;28;20401;-61
2023/04/18 09:22:59;;;;;;;23.30;8.70;;;;;;;17.89;33.05;100350.84;5090333;28;20044;-62
2023/04/18 09:25:37;;;;;;;27.95;9.38;;;;;;;17.91;32.97;100351.56;5089318;28;20071;-62
2023/04/18 09:28:28;;;;;;;16.63;8.63;;;;;;;17.91;32.81;100353.34;5071434;28;20046;-62
2023/04/18 09:31:11;;;;;;;15.23;8.77;;;;;;;17.81;32.68;100354.78;5090378;28;20050;-62
2023/04/18 09:33:41;;;;;;;14.15;9.18;;;;;;;17.77;32.57;100357.59;5072300;28;20047;-61
2023/04/18 09:36:20;;;;;;;19.10;8.60;;;;;;;17.72;32.98;100356.13;5094195;28;20175;-61
2023/04/18 09:38:51;;;;;;;27.08;9.70;;;;;;;17.68;33.16;100367.75;5070353;28;20036;-62
2023/04/18 09:41:17;;;;;;;21.30;9.43;;;;;;;17.55;33.31;100350.88;5072769;28;20154;-63
2023/04/18 09:43:44;;;;;;;22.00;9.45;;;;;;;17.67;33.04;100363.41;5077823;28;20056;-63
2023/04/18 09:46:11;;;;;;;16.52;8.88;;;;;;;17.54;33.15;100339.50;5092724;28;20430;-60
2023/04/18 09:48:41;;;;;;;21.15;8.40;;;;;;;17.65;32.85;100363.50;5073342;28;20112;-62
2023/04/18 09:51:09;;;;;;;20.30;8.45;;;;;;;17.64;32.87;100356.53;5072452;28;20075;-61
2023/04/18 09:53:40;;;;;;;22.05;8.75;;;;;;;17.64;33.04;100367.03;5072375;28;20047;-61
2023/04/18 09:56:13;;;;;;;14.25;8.50;;;;;;;17.63;33.16;100357.47;5069807;28;20059;-64
2023/04/18 09:58:41;;;;;;;24.20;8.25;;;;;;;17.60;33.13;100359.41;5071729;28;20507;-62
2023/04/18 10:01:07;;;;;;;16.83;7.88;;;;;;;17.53;33.03;100339.59;5103534;28;20496;-63
2023/04/18 10:03:41;;;;;;;14.80;7.53;;;;;;;17.65;33.08;100367.91;5072246;28;20047;-61
2023/04/18 10:06:08;;;;;;;12.63;8.32;;;;;;;17.61;33.02;100335.66;5088681;28;20487;-61
2023/04/18 10:08:34;;;;;;;18.45;7.80;;;;;;;17.66;33.06;100336.25;5089450;28;20471;-60
2023/04/18 10:11:00;;;;;;;23.88;8.18;;;;;;;17.86;33.07;100358.03;5071808;28;20054;-62
2023/04/18 10:13:27;;;;;;;20.08;8.00;;;;;;;17.77;33.00;100336.53;5089392;28;20164;-62
2023/04/18 10:15:54;;;;;;;20.55;7.78;;;;;;;17.99;33.08;100369.59;5104503;27;20032;-61
2023/04/18 10:18:22;;;;;;;15.50;8.43;;;;;;;18.09;32.90;100366.38;5071495;28;20036;-61
2023/04/18 10:20:48;;;;;;;14.32;7.68;;;;;;;18.15;32.82;100366.06;5105693;28;20441;-62
2023/04/18 10:23:35;;;;;;;22.02;8.10;;;;;;;18.18;33.06;100365.03;5088942;28;20036;-62
2023/04/18 10:26:09;;;;;;;21.38;8.57;;;;;;;18.18;33.02;100365.03;5088163;28;20090;-63
2023/04/18 10:28:50;;;;;;;15.95;8.30;;;;;;;18.22;32.93;100363.91;5103895;27;20043;-63
2023/04/18 10:31:16;;;;;;;20.55;8.23;;;;;;;18.10;33.23;100346.19;5088407;28;20050;-62
2023/04/18 10:33:49;;;;;;;23.15;9.40;;;;;;;18.25;33.05;100366.41;5088366;28;20415;-62
2023/04/18 10:36:18;;;;;;;17.35;7.95;;;;;;;18.17;33.33;100372.06;5069865;28;20063;-61
2023/04/18 10:39:10;;;;;;;13.02;7.68;;;;;;;18.17;33.40;100368.59;5088230;28;20419;-61
2023/04/18 10:41:47;;;;;;;17.05;8.73;;;;;;;18.10;33.82;100370.72;5058011;28;20051;-61
2023/04/18 10:44:17;;;;;;;14.90;8.02;;;;;;;18.03;33.94;100368.50;5070235;28;20113;-62
2023/04/18 10:46:52;;;;;;;19.85;8.90;;;;;;;18.00;34.38;100364.25;5071094;28;20124;-63
2023/04/18 10:49:23;;;;;;;14.88;7.50;;;;;;;17.97;34.25;100368.81;5088352;28;20525;-60
2023/04/18 10:51:51;;;;;;;11.75;7.80;;;;;;;17.87;34.37;100365.84;5088708;28;20048;-60
2023/04/18 10:54:36;;;;;;;13.68;7.90;;;;;;;17.79;34.44;100366.22;5088582;28;20084;-61
2023/04/18 10:57:03;;;;;;;13.90;7.90;;;;;;;17.65;34.54;100370.53;5089633;28;20051;-62
2023/04/18 10:59:31;;;;;;;16.58;7.50;;;;;;;17.54;34.65;100372.81;5063843;28;20036;-60
2023/04/18 11:02:27;;;;;;;18.77;7.63;;;;;;;17.48;34.75;100368.72;5082769;28;20040;-61
2023/04/18 11:04:55;;;;;;;17.08;7.70;;;;;;;17.43;34.87;100370.75;5073874;28;20119;-62
2023/04/18 11:07:54;;;;;;;17.00;7.95;;;;;;;17.44;35.11;100366.34;5088948;28;20159;-62
2023/04/18 11:10:22;;;;;;;19.77;9.48;;;;;;;17.41;35.34;100358.63;5057616;28;20044;-61
2023/04/18 11:12:49;;;;;;;14.70;7.68;;;;;;;17.40;35.28;100362.19;5100944;28;20078;-61
2023/04/18 11:15:22;;;;;;;13.10;7.97;;;;;;;17.41;35.21;100359.47;5103609;28;20032;-63
2023/04/18 11:17:59;;;;;;;13.88;7.57;;;;;;;17.51;35.29;100357.22;5069698;28;20036;-63
2023/04/18 11:20:25;;;;;;;13.15;6.97;;;;;;;17.46;35.00;100333.81;5087978;28;20431;-62